createdAt,value
2023-01-28T00:02:24.802Z,7.21
2023-01-28T00:04:53.525Z,7.19
2023-01-28T00:07:21.858Z,7.15
2023-01-28T00:09:50.139Z,7.20
2023-01-28T00:12:18.558Z,7.13
2023-01-28T00:14:48.023Z,7.18
2023-01-28T00:17:16.611Z,7.18
2023-01-28T00:19:46.183Z,7.16
2023-01-28T00:22:15.256Z,7.17
2023-01-28T00:24:43.564Z,7.24
2023-01-28T00:27:12.725Z,7.20
2023-01-28T00:29:41.030Z,7.25
2023-01-28T00:32:10.306Z,7.28
2023-01-28T00:34:38.582Z,7.32
2023-01-28T00:37:10.683Z,7.22
2023-01-28T00:39:38.985Z,7.35
2023-01-28T00:42:07.331Z,7.36
2023-01-28T00:44:36.415Z,7.29
2023-01-28T00:47:04.729Z,7.34
2023-01-28T00:49:33.047Z,7.26
2023-01-28T00:52:01.431Z,7.36
2023-01-28T00:54:32.233Z,7.24
2023-01-28T00:57:01.808Z,7.28
2023-01-28T00:59:30.070Z,7.24
2023-01-28T01:02:12.219Z,7.30
2023-01-28T01:04:41.303Z,7.23
2023-01-28T01:07:09.577Z,7.24
2023-01-28T01:09:39.427Z,7.23
2023-01-28T01:12:08.959Z,7.29
2023-01-28T01:14:37.255Z,6.82
2023-01-28T01:17:05.563Z,7.28
2023-01-28T01:19:33.859Z,7.26
2023-01-28T01:22:02.774Z,7.26
2023-01-28T01:24:34.267Z,7.28
2023-01-28T01:27:05.910Z,7.25
2023-01-28T01:29:34.328Z,7.30
2023-01-28T01:32:02.605Z,7.26
2023-01-28T01:34:30.955Z,7.27
2023-01-28T01:36:59.315Z,7.30
2023-01-28T01:39:27.653Z,7.26
2023-01-28T01:41:55.897Z,7.22
2023-01-28T01:45:00.777Z,7.12
2023-01-28T01:47:36.255Z,7.16
2023-01-28T01:50:09.464Z,7.13
2023-01-28T01:52:38.063Z,7.03
2023-01-28T01:55:14.020Z,7.07
2023-01-28T01:57:44.240Z,7.01
2023-01-28T02:00:14.915Z,6.94
2023-01-28T02:02:45.397Z,6.98
2023-01-28T02:05:18.421Z,7.02
2023-01-28T02:07:48.255Z,6.99
2023-01-28T02:10:19.639Z,6.97
2023-01-28T02:12:54.715Z,7.00
2023-01-28T02:15:29.815Z,6.99
2023-01-28T02:17:58.808Z,6.96
2023-01-28T02:20:38.481Z,6.91
2023-01-28T02:23:32.637Z,6.83
2023-01-28T02:26:24.319Z,7.00
2023-01-28T02:29:00.345Z,6.98
2023-01-28T02:31:35.867Z,6.94
2023-01-28T02:34:15.184Z,6.93
2023-01-28T02:36:49.453Z,6.82
2023-01-28T02:39:23.001Z,6.94
2023-01-28T02:41:57.738Z,6.88
2023-01-28T02:44:27.481Z,6.87
2023-01-28T02:47:13.750Z,6.83
2023-01-28T02:49:47.438Z,6.59
2023-01-28T02:52:54.803Z,6.70
2023-01-28T02:55:33.345Z,6.76
2023-01-28T02:58:11.222Z,6.75
2023-01-28T03:00:48.826Z,6.83
2023-01-28T03:03:23.984Z,6.77
2023-01-28T03:06:05.253Z,6.78
2023-01-28T03:08:55.582Z,6.78
2023-01-28T03:11:42.099Z,6.85
2023-01-28T03:14:28.964Z,6.82
2023-01-28T03:17:19.700Z,6.87
2023-01-28T03:20:06.177Z,6.84
2023-01-28T03:22:56.695Z,6.87
2023-01-28T03:25:45.346Z,6.92
2023-01-28T03:28:36.909Z,6.82
2023-01-28T03:31:28.165Z,6.89
2023-01-28T03:34:19.289Z,6.77
2023-01-28T03:36:50.416Z,6.55
2023-01-28T03:39:41.491Z,6.79
2023-01-28T03:42:14.773Z,6.84
2023-01-28T03:45:16.257Z,6.78
2023-01-28T03:47:47.759Z,6.78
2023-01-28T03:50:18.675Z,6.73
2023-01-28T03:53:13.533Z,6.63
2023-01-28T03:55:53.594Z,6.72
2023-01-28T03:58:23.428Z,6.73
2023-01-28T04:00:52.539Z,6.75
2023-01-28T04:03:22.495Z,6.68
2023-01-28T04:06:05.581Z,6.74
2023-01-28T04:08:52.941Z,6.76
2023-01-28T04:11:44.327Z,6.72
2023-01-28T04:14:17.278Z,6.77
2023-01-28T04:16:59.173Z,6.74
2023-01-28T04:19:28.659Z,6.73
2023-01-28T04:21:59.564Z,6.76
2023-01-28T04:24:28.010Z,6.69
2023-01-28T04:26:56.582Z,6.51
2023-01-28T04:29:26.490Z,5.92
2023-01-28T04:31:59.539Z,6.22
2023-01-28T04:34:38.840Z,6.08
2023-01-28T04:37:31.571Z,4.94
2023-01-28T04:40:15.532Z,5.95
2023-01-28T04:42:59.142Z,5.83
2023-01-28T04:45:45.844Z,5.17
2023-01-28T04:48:43.524Z,5.43
2023-01-28T04:51:30.771Z,5.58
2023-01-28T04:54:23.512Z,5.47
2023-01-28T04:56:51.975Z,5.26
2023-01-28T04:59:20.925Z,4.93
2023-01-28T05:01:49.518Z,3.91
2023-01-28T05:04:18.186Z,4.44
2023-01-28T05:06:46.462Z,4.74
2023-01-28T05:09:20.872Z,5.06
2023-01-28T05:11:51.730Z,5.35
2023-01-28T05:14:20.284Z,5.52
2023-01-28T05:17:06.023Z,5.74
2023-01-28T05:19:34.760Z,5.79
2023-01-28T05:22:04.072Z,5.73
2023-01-28T05:24:58.564Z,5.50
2023-01-28T05:27:28.295Z,5.43
2023-01-28T05:29:56.861Z,5.28
2023-01-28T05:32:25.189Z,5.40
2023-01-28T05:34:53.634Z,5.59
2023-01-28T05:37:21.926Z,5.52
2023-01-28T05:39:53.859Z,5.37
2023-01-28T05:42:22.611Z,5.57
2023-01-28T05:44:56.450Z,5.79
2023-01-28T05:47:44.811Z,5.64
2023-01-28T05:50:25.603Z,5.69
2023-01-28T05:53:13.805Z,5.56
2023-01-28T05:55:45.374Z,5.64
2023-01-28T05:58:13.773Z,5.55
2023-01-28T06:00:43.526Z,5.41
2023-01-28T06:03:11.961Z,5.27
2023-01-28T06:05:40.441Z,5.57
2023-01-28T06:08:09.196Z,5.21
2023-01-28T06:10:38.310Z,5.03
2023-01-28T06:13:06.637Z,5.26
2023-01-28T06:15:58.356Z,5.09
2023-01-28T06:18:38.086Z,5.28
2023-01-28T06:21:06.973Z,5.18
2023-01-28T06:23:35.423Z,4.90
2023-01-28T06:26:08.624Z,4.87
2023-01-28T06:28:38.528Z,4.95
2023-01-28T06:31:08.282Z,5.04
2023-01-28T06:33:36.670Z,5.13
2023-01-28T06:36:06.641Z,5.10
2023-01-28T06:38:35.199Z,5.11
2023-01-28T06:41:03.614Z,5.00
2023-01-28T06:43:31.992Z,4.87
2023-01-28T06:46:00.673Z,4.80
2023-01-28T06:48:30.542Z,4.78
2023-01-28T06:50:59.078Z,4.65
2023-01-28T06:53:27.380Z,4.59
2023-01-28T06:55:55.708Z,4.56
2023-01-28T06:58:24.040Z,4.72
2023-01-28T07:00:52.330Z,4.90
2023-01-28T07:03:20.915Z,5.20
2023-01-28T07:05:50.706Z,5.38
2023-01-28T07:08:19.091Z,5.53
2023-01-28T07:10:47.566Z,5.64
2023-01-28T07:13:15.911Z,5.70
2023-01-28T07:15:44.296Z,5.85
2023-01-28T07:18:12.612Z,5.90
2023-01-28T07:20:40.951Z,5.95
2023-01-28T07:23:10.654Z,5.94
2023-01-28T07:25:39.170Z,5.82
2023-01-28T07:28:07.720Z,6.01
2023-01-28T07:30:36.060Z,6.02
2023-01-28T07:33:04.360Z,6.03
2023-01-28T07:35:33.291Z,6.00
2023-01-28T07:38:02.807Z,5.99
2023-01-28T07:40:32.598Z,6.02
2023-01-28T07:43:01.059Z,6.00
2023-01-28T07:45:37.309Z,5.85
2023-01-28T07:48:07.993Z,5.81
2023-01-28T07:50:39.650Z,5.76
2023-01-28T07:53:12.621Z,5.89
2023-01-28T07:55:42.630Z,5.86
2023-01-28T07:58:13.583Z,5.99
2023-01-28T08:00:41.878Z,6.05
2023-01-28T08:03:16.911Z,6.39
2023-01-28T08:05:47.862Z,6.68
2023-01-28T08:08:16.997Z,6.91
2023-01-28T08:10:47.754Z,7.48
2023-01-28T08:13:17.998Z,7.88
2023-01-28T08:15:47.447Z,8.17
2023-01-28T08:18:17.775Z,8.12
2023-01-28T08:20:47.732Z,7.94
2023-01-28T08:23:18.700Z,8.12
2023-01-28T08:25:49.037Z,8.10
2023-01-28T08:28:18.467Z,7.44
2023-01-28T08:30:47.611Z,7.16
2023-01-28T08:33:19.069Z,7.79
2023-01-28T08:35:47.850Z,7.71
2023-01-28T08:38:17.692Z,7.69
2023-01-28T08:40:47.786Z,7.76
2023-01-28T08:43:16.121Z,7.74
2023-01-28T08:45:44.441Z,7.57
2023-01-28T08:48:17.133Z,7.35
2023-01-28T08:50:46.363Z,7.35
2023-01-28T08:53:17.065Z,7.22
2023-01-28T08:55:47.192Z,7.08
2023-01-28T08:58:18.051Z,6.61
2023-01-28T09:00:48.122Z,6.69
2023-01-28T09:03:16.554Z,6.66
2023-01-28T09:05:45.154Z,6.68
2023-01-28T09:08:16.522Z,6.79
2023-01-28T09:10:45.255Z,7.26
2023-01-28T09:13:17.050Z,7.51
2023-01-28T09:15:45.732Z,7.06
2023-01-28T09:18:14.063Z,7.25
2023-01-28T09:20:42.834Z,7.43
2023-01-28T09:23:11.861Z,7.75
2023-01-28T09:25:40.300Z,7.87
2023-01-28T09:28:09.006Z,7.67
2023-01-28T09:30:39.982Z,7.30
2023-01-28T09:33:09.102Z,6.67
2023-01-28T09:35:37.793Z,6.38
2023-01-28T09:38:07.076Z,6.66
2023-01-28T09:40:38.827Z,6.88
2023-01-28T09:43:34.784Z,6.44
2023-01-28T09:46:07.842Z,6.00
2023-01-28T09:48:42.068Z,5.99
2023-01-28T09:51:23.547Z,6.32
2023-01-28T09:53:56.611Z,6.68
2023-01-28T09:56:31.542Z,7.15
2023-01-28T09:59:01.340Z,7.35
2023-01-28T10:01:44.702Z,7.89
2023-01-28T10:04:40.805Z,7.82
2023-01-28T10:07:32.747Z,8.30
2023-01-28T10:10:08.001Z,8.87
2023-01-28T10:13:00.141Z,8.72
2023-01-28T10:15:55.702Z,9.19
2023-01-28T10:18:37.222Z,9.59
2023-01-28T10:21:14.399Z,9.01
2023-01-28T10:23:57.245Z,9.27
2023-01-28T10:26:29.099Z,9.79
2023-01-28T10:29:02.212Z,9.79
2023-01-28T10:31:37.056Z,9.84
2023-01-28T10:34:06.971Z,10.03
2023-01-28T10:36:35.974Z,9.49
2023-01-28T10:39:04.575Z,9.81
2023-01-28T10:41:34.517Z,10.12
2023-01-28T10:44:03.066Z,10.38
2023-01-28T10:46:35.335Z,10.52
2023-01-28T10:49:14.513Z,10.67
2023-01-28T10:51:44.954Z,10.27
2023-01-28T10:54:22.618Z,10.48
2023-01-28T10:56:56.293Z,10.44
2023-01-28T10:59:29.162Z,9.59
2023-01-28T11:02:03.684Z,9.66
2023-01-28T11:04:35.636Z,10.13
2023-01-28T11:07:07.692Z,9.83
2023-01-28T11:09:39.824Z,10.43
2023-01-28T11:12:21.607Z,10.80
2023-01-28T11:14:56.016Z,10.79
2023-01-28T11:17:27.306Z,9.88
2023-01-28T11:20:01.006Z,10.19
2023-01-28T11:22:35.210Z,9.82
2023-01-28T11:25:08.096Z,10.00
2023-01-28T11:27:36.592Z,10.11
2023-01-28T11:30:05.822Z,10.46
2023-01-28T11:32:34.820Z,9.60
2023-01-28T11:35:07.870Z,8.57
2023-01-28T11:37:37.891Z,9.51
2023-01-28T11:40:21.825Z,8.78
2023-01-28T11:42:52.573Z,8.54
2023-01-28T11:45:28.820Z,9.44
2023-01-28T11:48:14.187Z,10.18
2023-01-28T11:50:53.303Z,10.81
2023-01-28T11:53:56.389Z,11.34
2023-01-28T11:56:46.686Z,11.59
2023-01-28T11:59:43.389Z,11.56
2023-01-28T12:02:29.678Z,12.11
2023-01-28T12:05:13.990Z,11.36
2023-01-28T12:07:50.058Z,11.09
2023-01-28T12:10:30.376Z,11.00
2023-01-28T12:13:16.610Z,11.41
2023-01-28T12:16:25.787Z,11.98
2023-01-28T12:19:14.055Z,12.20
2023-01-28T12:21:58.001Z,11.80
2023-01-28T12:24:44.605Z,11.73
2023-01-28T12:27:28.242Z,11.69
2023-01-28T12:30:07.876Z,12.03
2023-01-28T12:32:55.683Z,11.85
2023-01-28T12:35:51.252Z,11.91
2023-01-28T12:38:32.426Z,12.09
2023-01-28T12:41:09.150Z,12.00
2023-01-28T12:43:51.131Z,12.30
2023-01-28T12:46:36.821Z,12.58
2023-01-28T12:49:10.345Z,12.71
2023-01-28T12:51:53.647Z,13.01
2023-01-28T12:54:26.535Z,13.19
2023-01-28T12:56:57.798Z,13.40
2023-01-28T12:59:33.326Z,13.07
2023-01-28T13:02:23.467Z,12.74
2023-01-28T13:04:59.477Z,13.04
2023-01-28T13:07:34.588Z,12.51
2023-01-28T13:10:08.118Z,11.54
2023-01-28T13:12:41.498Z,11.67
2023-01-28T13:15:15.552Z,11.82
2023-01-28T13:17:56.917Z,11.50
2023-01-28T13:20:37.956Z,12.45
2023-01-28T13:23:21.598Z,12.59
2023-01-28T13:25:51.105Z,12.25
2023-01-28T13:28:30.785Z,12.91
2023-01-28T13:31:08.286Z,13.03
2023-01-28T13:33:39.317Z,13.09
2023-01-28T13:36:25.172Z,12.84
2023-01-28T13:39:04.136Z,12.70
2023-01-28T13:41:41.712Z,12.76
2023-01-28T13:44:28.627Z,12.68
2023-01-28T13:47:01.381Z,12.70
2023-01-28T13:49:38.282Z,12.42
2023-01-28T13:52:15.966Z,12.86
2023-01-28T13:54:51.926Z,12.78
2023-01-28T13:58:03.602Z,13.00
2023-01-28T14:00:41.894Z,13.16
2023-01-28T14:03:55.157Z,12.85
2023-01-28T14:07:01.099Z,13.24
2023-01-28T14:09:54.831Z,12.45
2023-01-28T14:13:00.115Z,12.02
2023-01-28T14:15:48.173Z,12.35
2023-01-28T14:18:26.755Z,12.51
2023-01-28T14:20:58.276Z,12.51
2023-01-28T14:23:31.158Z,12.64
2023-01-28T14:26:19.240Z,12.64
2023-01-28T14:29:01.164Z,12.56
2023-01-28T14:31:38.004Z,12.53
2023-01-28T14:34:13.665Z,12.55
2023-01-28T14:36:45.536Z,12.39
2023-01-28T14:39:19.650Z,12.09
2023-01-28T14:41:51.663Z,12.43
2023-01-28T14:44:32.792Z,12.48
2023-01-28T14:47:41.379Z,12.38
2023-01-28T14:50:32.276Z,12.27
2023-01-28T14:53:25.735Z,12.23
2023-01-28T14:56:00.954Z,11.79
2023-01-28T14:58:35.986Z,11.19
2023-01-28T15:01:04.432Z,11.47
2023-01-28T15:03:35.551Z,11.51
2023-01-28T15:06:06.685Z,11.28
2023-01-28T15:08:35.873Z,11.14
2023-01-28T15:11:06.687Z,10.90
2023-01-28T15:13:37.815Z,10.78
2023-01-28T15:16:08.377Z,10.64
2023-01-28T15:18:42.485Z,10.44
2023-01-28T15:21:10.985Z,10.47
2023-01-28T15:23:42.417Z,10.19
2023-01-28T15:26:17.065Z,10.26
2023-01-28T15:28:47.451Z,9.66
2023-01-28T15:31:24.804Z,9.88
2023-01-28T15:34:03.223Z,9.77
2023-01-28T15:36:32.995Z,9.58
2023-01-28T15:39:01.460Z,9.59
2023-01-28T15:41:35.046Z,9.87
2023-01-28T15:44:04.246Z,9.81
2023-01-28T15:46:33.789Z,9.44
2023-01-28T15:49:05.387Z,9.42
2023-01-28T15:51:35.045Z,9.48
2023-01-28T15:54:08.323Z,9.63
2023-01-28T15:56:37.883Z,9.73
2023-01-28T15:59:23.466Z,9.56
2023-01-28T16:01:52.042Z,9.61
2023-01-28T16:04:30.238Z,9.60
2023-01-28T16:07:00.229Z,9.87
2023-01-28T16:09:32.199Z,9.69
2023-01-28T16:12:04.944Z,9.90
2023-01-28T16:14:41.622Z,10.20
2023-01-28T16:17:10.506Z,10.27
2023-01-28T16:19:43.432Z,10.17
2023-01-28T16:22:21.758Z,10.34
2023-01-28T16:24:52.954Z,10.34
2023-01-28T16:27:24.117Z,10.42
2023-01-28T16:29:52.684Z,10.35
2023-01-28T16:32:31.324Z,10.39
2023-01-28T16:35:01.631Z,10.44
2023-01-28T16:37:30.437Z,10.47
2023-01-28T16:40:00.392Z,10.40
2023-01-28T16:42:30.984Z,10.36
2023-01-28T16:44:59.620Z,10.35
2023-01-28T16:47:28.589Z,10.33
2023-01-28T16:49:57.130Z,10.26
2023-01-28T16:52:26.912Z,10.31
2023-01-28T16:54:55.236Z,10.31
2023-01-28T16:57:24.374Z,10.26
2023-01-28T16:59:52.630Z,10.17
2023-01-28T17:02:21.029Z,10.24
2023-01-28T17:04:49.333Z,10.27
2023-01-28T17:07:17.663Z,10.18
2023-01-28T17:09:47.510Z,10.29
2023-01-28T17:12:16.050Z,10.18
2023-01-28T17:14:44.373Z,9.95
2023-01-28T17:17:12.939Z,9.74
2023-01-28T17:19:41.545Z,9.70
2023-01-28T17:22:09.899Z,9.39
2023-01-28T17:24:38.258Z,9.29
2023-01-28T17:27:08.270Z,9.36
2023-01-28T17:29:36.748Z,9.27
2023-01-28T17:32:05.335Z,9.19
2023-01-28T17:34:33.859Z,9.24
2023-01-28T17:37:02.209Z,9.45
2023-01-28T17:39:30.597Z,9.42
2023-01-28T17:41:59.163Z,9.69
2023-01-28T17:44:28.858Z,9.71
2023-01-28T17:46:57.154Z,9.62
2023-01-28T17:49:25.700Z,9.72
2023-01-28T17:51:54.099Z,9.59
2023-01-28T17:54:24.120Z,9.57
2023-01-28T17:56:53.032Z,9.39
2023-01-28T17:59:22.165Z,9.57
2023-01-28T18:01:54.587Z,9.58
2023-01-28T18:04:22.952Z,9.63
2023-01-28T18:06:51.658Z,9.74
2023-01-28T18:09:20.492Z,9.77
2023-01-28T18:11:48.819Z,9.63
2023-01-28T18:14:17.212Z,9.60
2023-01-28T18:16:45.718Z,9.55
2023-01-28T18:19:15.517Z,9.47
2023-01-28T18:21:52.717Z,9.46
2023-01-28T18:24:23.779Z,9.28
2023-01-28T18:26:52.316Z,9.51
2023-01-28T18:29:23.932Z,9.49
2023-01-28T18:31:55.430Z,9.35
2023-01-28T18:34:28.051Z,9.59
2023-01-28T18:36:57.297Z,9.56
2023-01-28T18:39:30.180Z,9.47
2023-01-28T18:41:59.445Z,9.22
2023-01-28T18:44:31.347Z,9.07
2023-01-28T18:46:59.806Z,9.09
2023-01-28T18:49:29.421Z,9.17
2023-01-28T18:51:57.909Z,9.07
2023-01-28T18:54:27.167Z,9.19
2023-01-28T18:56:55.643Z,9.07
2023-01-28T18:59:24.136Z,9.16
2023-01-28T19:01:53.153Z,9.05
2023-01-28T19:04:22.277Z,9.01
2023-01-28T19:06:52.081Z,9.05
2023-01-28T19:09:20.760Z,9.00
2023-01-28T19:11:50.830Z,9.07
2023-01-28T19:14:19.551Z,9.12
2023-01-28T19:16:48.484Z,9.16
2023-01-28T19:19:17.214Z,9.15
2023-01-28T19:21:45.596Z,9.19
2023-01-28T19:24:15.533Z,9.24
2023-01-28T19:26:45.365Z,9.22
2023-01-28T19:29:16.249Z,9.27
2023-01-28T19:31:48.779Z,9.27
2023-01-28T19:34:17.390Z,9.23
2023-01-28T19:36:46.751Z,9.21
2023-01-28T19:39:16.977Z,9.14
2023-01-28T19:41:45.791Z,9.17
2023-01-28T19:44:14.275Z,9.07
2023-01-28T19:46:43.165Z,9.12
2023-01-28T19:49:12.602Z,9.07
2023-01-28T19:51:41.022Z,9.08
2023-01-28T19:54:09.903Z,9.12
2023-01-28T19:56:39.660Z,8.88
2023-01-28T19:59:08.329Z,9.01
2023-01-28T20:01:37.187Z,8.98
2023-01-28T20:04:05.921Z,8.81
2023-01-28T20:06:35.702Z,8.86
2023-01-28T20:09:09.303Z,8.72
2023-01-28T20:11:39.199Z,8.45
2023-01-28T20:14:07.761Z,8.42
2023-01-28T20:16:37.203Z,8.32
2023-01-28T20:19:07.518Z,8.21
2023-01-28T20:21:37.109Z,8.08
2023-01-28T20:24:06.939Z,8.01
2023-01-28T20:26:39.164Z,8.06
2023-01-28T20:29:11.013Z,8.01
2023-01-28T20:31:41.289Z,8.08
2023-01-28T20:34:18.014Z,7.96
2023-01-28T20:36:47.153Z,7.96
2023-01-28T20:39:15.743Z,7.97
2023-01-28T20:41:45.792Z,8.04
2023-01-28T20:44:14.199Z,8.13
2023-01-28T20:46:42.549Z,8.14
2023-01-28T20:49:11.387Z,8.06
2023-01-28T20:51:39.734Z,7.88
2023-01-28T20:54:08.421Z,8.02
2023-01-28T20:56:36.903Z,7.46
2023-01-28T20:59:07.597Z,8.18
2023-01-28T21:01:36.924Z,8.08
2023-01-28T21:04:07.262Z,8.23
2023-01-28T21:06:37.421Z,8.28
2023-01-28T21:09:06.439Z,8.33
2023-01-28T21:11:35.373Z,8.45
2023-01-28T21:14:03.890Z,8.54
2023-01-28T21:16:33.800Z,8.51
2023-01-28T21:19:02.157Z,8.66
2023-01-28T21:21:31.326Z,8.70
2023-01-28T21:24:01.361Z,8.66
2023-01-28T21:26:30.430Z,8.65
2023-01-28T21:28:58.977Z,8.55
2023-01-28T21:31:28.480Z,8.57
2023-01-28T21:34:01.240Z,8.68
2023-01-28T21:36:33.590Z,8.72
2023-01-28T21:39:03.468Z,8.67
2023-01-28T21:41:32.552Z,8.54
2023-01-28T21:44:00.849Z,8.65
2023-01-28T21:46:32.551Z,8.75
2023-01-28T21:49:05.304Z,8.56
2023-01-28T21:51:40.449Z,8.14
2023-01-28T21:54:12.166Z,8.76
2023-01-28T21:56:40.761Z,8.65
2023-01-28T21:59:27.838Z,8.73
2023-01-28T22:01:57.593Z,8.73
2023-01-28T22:04:29.013Z,8.07
2023-01-28T22:06:57.691Z,8.45
2023-01-28T22:09:26.686Z,8.65
2023-01-28T22:11:55.111Z,8.67
2023-01-28T22:14:23.850Z,8.62
2023-01-28T22:16:53.344Z,8.63
2023-01-28T22:19:21.758Z,8.61
2023-01-28T22:21:51.496Z,8.70
2023-01-28T22:24:22.443Z,8.45
2023-01-28T22:26:51.834Z,8.67
2023-01-28T22:29:22.173Z,8.71
2023-01-28T22:31:52.596Z,8.21
2023-01-28T22:34:22.655Z,8.62
2023-01-28T22:36:53.118Z,8.67
2023-01-28T22:39:21.550Z,8.71
2023-01-28T22:41:49.899Z,8.59
2023-01-28T22:44:19.872Z,8.52
2023-01-28T22:46:48.519Z,8.69
2023-01-28T22:49:16.930Z,8.78
2023-01-28T22:51:45.289Z,8.79
2023-01-28T22:54:15.258Z,8.69
2023-01-28T22:56:43.718Z,8.72
2023-01-28T22:59:12.780Z,8.70
2023-01-28T23:01:41.313Z,8.67
2023-01-28T23:04:10.102Z,8.58
2023-01-28T23:06:38.825Z,8.46
2023-01-28T23:09:07.132Z,8.33
2023-01-28T23:11:36.962Z,8.62
2023-01-28T23:14:22.821Z,8.67
2023-01-28T23:17:09.225Z,8.66
2023-01-28T23:19:55.348Z,8.47
2023-01-28T23:22:44.024Z,8.51
2023-01-28T23:25:13.363Z,8.43
2023-01-28T23:27:43.321Z,8.51
2023-01-28T23:30:14.588Z,8.45
2023-01-28T23:32:48.558Z,8.50
2023-01-28T23:35:19.072Z,8.43
2023-01-28T23:37:47.377Z,8.37
2023-01-28T23:40:16.960Z,8.38
2023-01-28T23:42:51.411Z,8.26
2023-01-28T23:45:20.520Z,8.37
2023-01-28T23:47:49.028Z,8.38
2023-01-28T23:50:18.473Z,8.38
2023-01-28T23:52:47.023Z,8.31
2023-01-28T23:55:16.474Z,8.31
2023-01-28T23:57:44.869Z,8.03
